sensor_id;sensor_type;location;lat;lon;timestamp;P1;durP1;ratioP1;P2;durP2;ratioP2
33954;SDS011;20233;50.804;7.126;2023-02-08T00:01:07;17.95;;;10.68;;
33954;SDS011;20233;50.804;7.126;2023-02-08T00:03:34;17.30;;;10.18;;
33954;SDS011;20233;50.804;7.126;2023-02-08T00:06:00;17.52;;;10.43;;
33954;SDS011;20233;50.804;7.126;2023-02-08T00:08:26;17.52;;;10.05;;
33954;SDS011;20233;50.804;7.126;2023-02-08T00:10:51;18.08;;;10.32;;
33954;SDS011;20233;50.804;7.126;2023-02-08T00:13:17;20.55;;;10.75;;
33954;SDS011;20233;50.804;7.126;2023-02-08T00:15:43;18.33;;;10.23;;
33954;SDS011;20233;50.804;7.126;2023-02-08T00:18:10;21.88;;;10.90;;
33954;SDS011;20233;50.804;7.126;2023-02-08T00:20:39;20.05;;;11.02;;
33954;SDS011;20233;50.804;7.126;2023-02-08T00:23:06;20.30;;;10.88;;
33954;SDS011;20233;50.804;7.126;2023-02-08T00:25:32;19.60;;;11.00;;
33954;SDS011;20233;50.804;7.126;2023-02-08T00:27:58;18.13;;;10.20;;
33954;SDS011;20233;50.804;7.126;2023-02-08T00:30:23;19.30;;;10.77;;
33954;SDS011;20233;50.804;7.126;2023-02-08T00:32:49;18.02;;;10.15;;
33954;SDS011;20233;50.804;7.126;2023-02-08T00:35:15;20.85;;;10.60;;
33954;SDS011;20233;50.804;7.126;2023-02-08T00:37:40;16.25;;;10.13;;
33954;SDS011;20233;50.804;7.126;2023-02-08T00:40:06;20.27;;;10.32;;
33954;SDS011;20233;50.804;7.126;2023-02-08T00:42:32;16.60;;;9.82;;
33954;SDS011;20233;50.804;7.126;2023-02-08T00:44:58;19.08;;;10.32;;
33954;SDS011;20233;50.804;7.126;2023-02-08T00:47:23;19.05;;;10.77;;
33954;SDS011;20233;50.804;7.126;2023-02-08T00:49:49;18.08;;;11.77;;
33954;SDS011;20233;50.804;7.126;2023-02-08T00:52:15;20.58;;;10.07;;
33954;SDS011;20233;50.804;7.126;2023-02-08T00:54:41;21.42;;;10.80;;
33954;SDS011;20233;50.804;7.126;2023-02-08T00:57:07;17.65;;;10.18;;
33954;SDS011;20233;50.804;7.126;2023-02-08T00:59:33;16.80;;;10.20;;
33954;SDS011;20233;50.804;7.126;2023-02-08T01:01:58;23.02;;;9.85;;
33954;SDS011;20233;50.804;7.126;2023-02-08T01:04:24;19.58;;;10.63;;
33954;SDS011;20233;50.804;7.126;2023-02-08T01:06:50;18.70;;;9.80;;
33954;SDS011;20233;50.804;7.126;2023-02-08T01:09:15;18.08;;;10.95;;
33954;SDS011;20233;50.804;7.126;2023-02-08T01:11:41;20.10;;;10.35;;
33954;SDS011;20233;50.804;7.126;2023-02-08T01:14:07;21.02;;;9.88;;
33954;SDS011;20233;50.804;7.126;2023-02-08T01:16:33;18.85;;;10.00;;
33954;SDS011;20233;50.804;7.126;2023-02-08T01:18:59;18.23;;;9.55;;
33954;SDS011;20233;50.804;7.126;2023-02-08T01:21:28;20.48;;;9.82;;
33954;SDS011;20233;50.804;7.126;2023-02-08T01:23:56;18.75;;;9.98;;
33954;SDS011;20233;50.804;7.126;2023-02-08T01:26:22;21.45;;;10.57;;
33954;SDS011;20233;50.804;7.126;2023-02-08T01:28:48;20.05;;;10.32;;
33954;SDS011;20233;50.804;7.126;2023-02-08T01:31:16;25.92;;;12.20;;
33954;SDS011;20233;50.804;7.126;2023-02-08T01:33:43;27.48;;;13.18;;
33954;SDS011;20233;50.804;7.126;2023-02-08T01:36:09;33.15;;;13.10;;
33954;SDS011;20233;50.804;7.126;2023-02-08T01:38:36;30.45;;;12.95;;
33954;SDS011;20233;50.804;7.126;2023-02-08T01:41:03;32.92;;;13.27;;
33954;SDS011;20233;50.804;7.126;2023-02-08T01:43:31;23.60;;;11.52;;
33954;SDS011;20233;50.804;7.126;2023-02-08T01:45:59;19.77;;;11.43;;
33954;SDS011;20233;50.804;7.126;2023-02-08T01:48:26;22.85;;;11.18;;
33954;SDS011;20233;50.804;7.126;2023-02-08T01:51:00;17.38;;;9.85;;
33954;SDS011;20233;50.804;7.126;2023-02-08T01:53:35;24.23;;;11.98;;
33954;SDS011;20233;50.804;7.126;2023-02-08T01:56:02;24.30;;;11.27;;
33954;SDS011;20233;50.804;7.126;2023-02-08T01:58:33;25.70;;;11.95;;
33954;SDS011;20233;50.804;7.126;2023-02-08T02:01:02;22.63;;;10.75;;
33954;SDS011;20233;50.804;7.126;2023-02-08T02:03:28;21.02;;;10.70;;
33954;SDS011;20233;50.804;7.126;2023-02-08T02:05:55;20.42;;;9.95;;
33954;SDS011;20233;50.804;7.126;2023-02-08T02:08:25;22.25;;;10.75;;
33954;SDS011;20233;50.804;7.126;2023-02-08T02:10:51;21.52;;;10.68;;
33954;SDS011;20233;50.804;7.126;2023-02-08T02:13:19;19.58;;;10.10;;
33954;SDS011;20233;50.804;7.126;2023-02-08T02:15:48;19.60;;;10.63;;
33954;SDS011;20233;50.804;7.126;2023-02-08T02:18:26;20.73;;;10.93;;
33954;SDS011;20233;50.804;7.126;2023-02-08T02:26:34;18.50;;;9.40;;
33954;SDS011;20233;50.804;7.126;2023-02-08T02:34:38;34.05;;;13.25;;
33954;SDS011;20233;50.804;7.126;2023-02-08T02:39:44;19.90;;;9.95;;
33954;SDS011;20233;50.804;7.126;2023-02-08T02:42:35;25.83;;;11.93;;
33954;SDS011;20233;50.804;7.126;2023-02-08T02:48:21;21.02;;;10.48;;
33954;SDS011;20233;50.804;7.126;2023-02-08T02:51:02;20.30;;;10.30;;
33954;SDS011;20233;50.804;7.126;2023-02-08T02:53:36;18.70;;;10.50;;
33954;SDS011;20233;50.804;7.126;2023-02-08T02:56:23;19.65;;;10.77;;
33954;SDS011;20233;50.804;7.126;2023-02-08T02:58:55;19.35;;;10.75;;
33954;SDS011;20233;50.804;7.126;2023-02-08T03:01:23;21.23;;;11.07;;
33954;SDS011;20233;50.804;7.126;2023-02-08T03:03:50;29.17;;;11.77;;
33954;SDS011;20233;50.804;7.126;2023-02-08T03:06:20;24.77;;;11.32;;
33954;SDS011;20233;50.804;7.126;2023-02-08T03:11:37;21.20;;;10.70;;
33954;SDS011;20233;50.804;7.126;2023-02-08T03:14:14;20.50;;;10.10;;
33954;SDS011;20233;50.804;7.126;2023-02-08T03:17:02;22.52;;;10.75;;
33954;SDS011;20233;50.804;7.126;2023-02-08T03:19:52;24.73;;;11.90;;
33954;SDS011;20233;50.804;7.126;2023-02-08T03:25:09;20.27;;;9.75;;
33954;SDS011;20233;50.804;7.126;2023-02-08T03:27:42;22.75;;;10.80;;
33954;SDS011;20233;50.804;7.126;2023-02-08T03:30:29;19.30;;;10.60;;
33954;SDS011;20233;50.804;7.126;2023-02-08T03:33:09;23.38;;;10.50;;
33954;SDS011;20233;50.804;7.126;2023-02-08T03:35:45;19.65;;;9.50;;
33954;SDS011;20233;50.804;7.126;2023-02-08T03:38:40;22.92;;;10.85;;
33954;SDS011;20233;50.804;7.126;2023-02-08T03:41:10;21.20;;;10.10;;
33954;SDS011;20233;50.804;7.126;2023-02-08T03:43:40;21.80;;;11.68;;
33954;SDS011;20233;50.804;7.126;2023-02-08T03:48:43;21.83;;;11.35;;
33954;SDS011;20233;50.804;7.126;2023-02-08T03:51:11;25.25;;;11.55;;
33954;SDS011;20233;50.804;7.126;2023-02-08T03:53:40;23.33;;;10.57;;
33954;SDS011;20233;50.804;7.126;2023-02-08T03:56:10;22.52;;;11.10;;
33954;SDS011;20233;50.804;7.126;2023-02-08T03:58:47;22.77;;;11.55;;
33954;SDS011;20233;50.804;7.126;2023-02-08T04:01:21;21.83;;;10.82;;
33954;SDS011;20233;50.804;7.126;2023-02-08T04:03:50;20.20;;;11.77;;
33954;SDS011;20233;50.804;7.126;2023-02-08T04:06:18;21.08;;;10.32;;
33954;SDS011;20233;50.804;7.126;2023-02-08T04:08:44;19.17;;;10.95;;
33954;SDS011;20233;50.804;7.126;2023-02-08T04:11:09;17.92;;;10.23;;
33954;SDS011;20233;50.804;7.126;2023-02-08T04:13:35;20.20;;;10.95;;
33954;SDS011;20233;50.804;7.126;2023-02-08T04:16:00;19.02;;;10.18;;
33954;SDS011;20233;50.804;7.126;2023-02-08T04:18:26;18.48;;;10.57;;
33954;SDS011;20233;50.804;7.126;2023-02-08T04:20:51;19.45;;;10.65;;
33954;SDS011;20233;50.804;7.126;2023-02-08T04:23:17;17.83;;;9.68;;
33954;SDS011;20233;50.804;7.126;2023-02-08T04:25:42;18.50;;;10.05;;
33954;SDS011;20233;50.804;7.126;2023-02-08T04:28:08;22.33;;;10.57;;
33954;SDS011;20233;50.804;7.126;2023-02-08T04:30:33;20.52;;;10.80;;
33954;SDS011;20233;50.804;7.126;2023-02-08T04:32:59;21.38;;;10.95;;
33954;SDS011;20233;50.804;7.126;2023-02-08T04:35:24;28.55;;;12.57;;
33954;SDS011;20233;50.804;7.126;2023-02-08T04:37:50;20.35;;;10.55;;
33954;SDS011;20233;50.804;7.126;2023-02-08T04:40:16;27.60;;;12.88;;
33954;SDS011;20233;50.804;7.126;2023-02-08T04:42:42;29.08;;;13.32;;
33954;SDS011;20233;50.804;7.126;2023-02-08T04:45:08;29.85;;;11.80;;
33954;SDS011;20233;50.804;7.126;2023-02-08T04:47:34;24.80;;;11.40;;
33954;SDS011;20233;50.804;7.126;2023-02-08T04:49:59;30.65;;;13.20;;
33954;SDS011;20233;50.804;7.126;2023-02-08T04:52:25;30.08;;;12.95;;
33954;SDS011;20233;50.804;7.126;2023-02-08T04:54:50;23.88;;;11.68;;
33954;SDS011;20233;50.804;7.126;2023-02-08T04:57:16;26.02;;;11.63;;
33954;SDS011;20233;50.804;7.126;2023-02-08T04:59:41;22.52;;;11.32;;
33954;SDS011;20233;50.804;7.126;2023-02-08T05:02:07;21.52;;;10.77;;
33954;SDS011;20233;50.804;7.126;2023-02-08T05:04:32;23.55;;;11.25;;
33954;SDS011;20233;50.804;7.126;2023-02-08T05:06:58;18.30;;;10.38;;
33954;SDS011;20233;50.804;7.126;2023-02-08T05:09:23;18.75;;;10.25;;
33954;SDS011;20233;50.804;7.126;2023-02-08T05:11:49;18.52;;;10.50;;
33954;SDS011;20233;50.804;7.126;2023-02-08T05:14:14;21.83;;;11.75;;
33954;SDS011;20233;50.804;7.126;2023-02-08T05:16:40;21.23;;;11.00;;
33954;SDS011;20233;50.804;7.126;2023-02-08T05:19:05;20.80;;;10.07;;
33954;SDS011;20233;50.804;7.126;2023-02-08T05:21:31;20.52;;;10.52;;
33954;SDS011;20233;50.804;7.126;2023-02-08T05:23:57;19.25;;;9.30;;
33954;SDS011;20233;50.804;7.126;2023-02-08T05:26:22;17.00;;;9.55;;
33954;SDS011;20233;50.804;7.126;2023-02-08T05:28:48;19.75;;;9.52;;
33954;SDS011;20233;50.804;7.126;2023-02-08T05:31:15;16.63;;;9.45;;
33954;SDS011;20233;50.804;7.126;2023-02-08T05:33:43;18.17;;;9.65;;
33954;SDS011;20233;50.804;7.126;2023-02-08T05:36:09;17.85;;;9.30;;
33954;SDS011;20233;50.804;7.126;2023-02-08T05:38:34;24.25;;;11.15;;
33954;SDS011;20233;50.804;7.126;2023-02-08T05:41:00;20.45;;;10.95;;
33954;SDS011;20233;50.804;7.126;2023-02-08T05:43:25;21.13;;;10.27;;
33954;SDS011;20233;50.804;7.126;2023-02-08T05:45:51;17.55;;;10.00;;
33954;SDS011;20233;50.804;7.126;2023-02-08T05:48:17;17.02;;;9.93;;
33954;SDS011;20233;50.804;7.126;2023-02-08T05:50:43;19.67;;;9.48;;
33954;SDS011;20233;50.804;7.126;2023-02-08T05:53:08;16.83;;;9.68;;
33954;SDS011;20233;50.804;7.126;2023-02-08T05:55:34;20.98;;;9.27;;
33954;SDS011;20233;50.804;7.126;2023-02-08T05:57:59;20.02;;;8.98;;
33954;SDS011;20233;50.804;7.126;2023-02-08T06:00:25;20.95;;;10.50;;
33954;SDS011;20233;50.804;7.126;2023-02-08T06:02:50;18.27;;;8.70;;
33954;SDS011;20233;50.804;7.126;2023-02-08T06:05:16;16.98;;;10.32;;
33954;SDS011;20233;50.804;7.126;2023-02-08T06:07:43;18.13;;;9.75;;
33954;SDS011;20233;50.804;7.126;2023-02-08T06:10:09;15.57;;;9.55;;
33954;SDS011;20233;50.804;7.126;2023-02-08T06:12:36;18.23;;;9.52;;
33954;SDS011;20233;50.804;7.126;2023-02-08T06:15:02;17.98;;;9.88;;
33954;SDS011;20233;50.804;7.126;2023-02-08T06:17:28;16.88;;;8.30;;
33954;SDS011;20233;50.804;7.126;2023-02-08T06:19:55;17.80;;;8.50;;
33954;SDS011;20233;50.804;7.126;2023-02-08T06:22:22;18.40;;;9.10;;
33954;SDS011;20233;50.804;7.126;2023-02-08T06:24:51;19.85;;;9.35;;
33954;SDS011;20233;50.804;7.126;2023-02-08T06:27:18;14.75;;;8.63;;
33954;SDS011;20233;50.804;7.126;2023-02-08T06:29:45;16.63;;;8.90;;
33954;SDS011;20233;50.804;7.126;2023-02-08T06:32:13;18.40;;;9.43;;
33954;SDS011;20233;50.804;7.126;2023-02-08T06:34:40;18.45;;;9.43;;
33954;SDS011;20233;50.804;7.126;2023-02-08T06:37:07;17.88;;;10.10;;
33954;SDS011;20233;50.804;7.126;2023-02-08T06:39:34;16.38;;;9.30;;
33954;SDS011;20233;50.804;7.126;2023-02-08T06:42:00;16.10;;;9.68;;
33954;SDS011;20233;50.804;7.126;2023-02-08T06:44:27;17.35;;;9.68;;
33954;SDS011;20233;50.804;7.126;2023-02-08T06:46:53;20.08;;;9.48;;
33954;SDS011;20233;50.804;7.126;2023-02-08T06:49:21;15.95;;;8.77;;
33954;SDS011;20233;50.804;7.126;2023-02-08T06:51:49;15.75;;;9.27;;
33954;SDS011;20233;50.804;7.126;2023-02-08T06:54:15;16.20;;;8.15;;
33954;SDS011;20233;50.804;7.126;2023-02-08T06:56:42;20.05;;;8.80;;
33954;SDS011;20233;50.804;7.126;2023-02-08T06:59:08;15.45;;;8.45;;
33954;SDS011;20233;50.804;7.126;2023-02-08T07:01:35;18.13;;;8.10;;
33954;SDS011;20233;50.804;7.126;2023-02-08T07:04:01;18.52;;;8.75;;
33954;SDS011;20233;50.804;7.126;2023-02-08T07:06:27;15.57;;;8.38;;
33954;SDS011;20233;50.804;7.126;2023-02-08T07:08:53;15.98;;;8.27;;
33954;SDS011;20233;50.804;7.126;2023-02-08T07:11:21;18.85;;;9.45;;
33954;SDS011;20233;50.804;7.126;2023-02-08T07:13:52;15.88;;;8.60;;
33954;SDS011;20233;50.804;7.126;2023-02-08T07:16:21;17.92;;;8.98;;
33954;SDS011;20233;50.804;7.126;2023-02-08T07:18:48;14.93;;;7.50;;
33954;SDS011;20233;50.804;7.126;2023-02-08T07:21:14;13.93;;;7.35;;
33954;SDS011;20233;50.804;7.126;2023-02-08T07:23:40;15.70;;;8.25;;
33954;SDS011;20233;50.804;7.126;2023-02-08T07:26:07;15.00;;;7.63;;
33954;SDS011;20233;50.804;7.126;2023-02-08T07:28:36;14.98;;;8.35;;
33954;SDS011;20233;50.804;7.126;2023-02-08T07:31:06;20.10;;;8.30;;
33954;SDS011;20233;50.804;7.126;2023-02-08T07:33:34;14.20;;;8.10;;
33954;SDS011;20233;50.804;7.126;2023-02-08T07:36:01;16.90;;;8.60;;
33954;SDS011;20233;50.804;7.126;2023-02-08T07:38:29;16.08;;;9.23;;
33954;SDS011;20233;50.804;7.126;2023-02-08T07:41:05;16.48;;;8.25;;
33954;SDS011;20233;50.804;7.126;2023-02-08T07:43:36;18.23;;;8.55;;
33954;SDS011;20233;50.804;7.126;2023-02-08T07:46:10;17.08;;;8.45;;
33954;SDS011;20233;50.804;7.126;2023-02-08T07:48:39;17.70;;;8.43;;
33954;SDS011;20233;50.804;7.126;2023-02-08T07:51:06;14.18;;;8.50;;
33954;SDS011;20233;50.804;7.126;2023-02-08T07:53:34;14.57;;;7.72;;
33954;SDS011;20233;50.804;7.126;2023-02-08T07:56:03;17.20;;;8.10;;
33954;SDS011;20233;50.804;7.126;2023-02-08T07:58:34;14.70;;;7.72;;
33954;SDS011;20233;50.804;7.126;2023-02-08T08:01:01;15.95;;;8.00;;
33954;SDS011;20233;50.804;7.126;2023-02-08T08:03:29;14.68;;;7.93;;
33954;SDS011;20233;50.804;7.126;2023-02-08T08:05:55;18.20;;;8.60;;
33954;SDS011;20233;50.804;7.126;2023-02-08T08:08:21;19.17;;;8.55;;
33954;SDS011;20233;50.804;7.126;2023-02-08T08:10:50;14.93;;;8.13;;
33954;SDS011;20233;50.804;7.126;2023-02-08T08:13:18;19.17;;;9.43;;
33954;SDS011;20233;50.804;7.126;2023-02-08T08:15:46;16.88;;;8.00;;
33954;SDS011;20233;50.804;7.126;2023-02-08T08:18:12;14.45;;;7.72;;
33954;SDS011;20233;50.804;7.126;2023-02-08T08:20:38;13.35;;;8.20;;
33954;SDS011;20233;50.804;7.126;2023-02-08T08:23:06;16.70;;;8.57;;
33954;SDS011;20233;50.804;7.126;2023-02-08T08:25:33;15.88;;;7.93;;
33954;SDS011;20233;50.804;7.126;2023-02-08T08:27:59;14.48;;;7.85;;
33954;SDS011;20233;50.804;7.126;2023-02-08T08:30:27;15.25;;;7.70;;
33954;SDS011;20233;50.804;7.126;2023-02-08T08:32:53;14.57;;;7.95;;
33954;SDS011;20233;50.804;7.126;2023-02-08T08:35:21;17.10;;;8.13;;
33954;SDS011;20233;50.804;7.126;2023-02-08T08:37:52;15.70;;;7.85;;
33954;SDS011;20233;50.804;7.126;2023-02-08T08:40:19;14.38;;;7.20;;
33954;SDS011;20233;50.804;7.126;2023-02-08T08:42:46;16.15;;;8.20;;
33954;SDS011;20233;50.804;7.126;2023-02-08T08:45:13;14.27;;;7.45;;
33954;SDS011;20233;50.804;7.126;2023-02-08T08:47:40;15.68;;;7.80;;
33954;SDS011;20233;50.804;7.126;2023-02-08T08:50:07;13.00;;;7.10;;
33954;SDS011;20233;50.804;7.126;2023-02-08T08:52:34;15.25;;;7.15;;
33954;SDS011;20233;50.804;7.126;2023-02-08T08:55:01;13.85;;;7.55;;
33954;SDS011;20233;50.804;7.126;2023-02-08T08:57:27;14.77;;;8.50;;
33954;SDS011;20233;50.804;7.126;2023-02-08T08:59:53;16.77;;;7.18;;
33954;SDS011;20233;50.804;7.126;2023-02-08T09:02:20;14.85;;;7.15;;
33954;SDS011;20233;50.804;7.126;2023-02-08T09:04:47;13.18;;;5.97;;
33954;SDS011;20233;50.804;7.126;2023-02-08T09:07:14;11.95;;;7.20;;
33954;SDS011;20233;50.804;7.126;2023-02-08T09:09:42;17.25;;;7.40;;
33954;SDS011;20233;50.804;7.126;2023-02-08T09:12:13;12.97;;;7.33;;
33954;SDS011;20233;50.804;7.126;2023-02-08T09:14:42;12.75;;;6.47;;
33954;SDS011;20233;50.804;7.126;2023-02-08T09:17:10;13.60;;;7.00;;
33954;SDS011;20233;50.804;7.126;2023-02-08T09:19:40;12.37;;;6.67;;
33954;SDS011;20233;50.804;7.126;2023-02-08T09:22:08;12.98;;;6.78;;
33954;SDS011;20233;50.804;7.126;2023-02-08T09:24:35;13.13;;;7.50;;
33954;SDS011;20233;50.804;7.126;2023-02-08T09:27:02;12.43;;;6.03;;
33954;SDS011;20233;50.804;7.126;2023-02-08T09:29:28;12.40;;;6.47;;
33954;SDS011;20233;50.804;7.126;2023-02-08T09:31:57;14.57;;;7.05;;
33954;SDS011;20233;50.804;7.126;2023-02-08T09:34:24;13.20;;;6.47;;
33954;SDS011;20233;50.804;7.126;2023-02-08T09:36:50;15.60;;;6.47;;
33954;SDS011;20233;50.804;7.126;2023-02-08T09:39:21;13.95;;;6.60;;
33954;SDS011;20233;50.804;7.126;2023-02-08T09:42:00;15.20;;;6.85;;
33954;SDS011;20233;50.804;7.126;2023-02-08T09:44:54;11.60;;;6.88;;
33954;SDS011;20233;50.804;7.126;2023-02-08T09:47:49;12.50;;;6.57;;
33954;SDS011;20233;50.804;7.126;2023-02-08T09:50:40;13.57;;;7.25;;
33954;SDS011;20233;50.804;7.126;2023-02-08T09:53:12;9.57;;;5.68;;
33954;SDS011;20233;50.804;7.126;2023-02-08T09:56:00;8.85;;;6.18;;
33954;SDS011;20233;50.804;7.126;2023-02-08T10:03:58;12.90;;;6.80;;
33954;SDS011;20233;50.804;7.126;2023-02-08T10:06:37;12.60;;;6.03;;
33954;SDS011;20233;50.804;7.126;2023-02-08T10:09:04;15.23;;;6.70;;
33954;SDS011;20233;50.804;7.126;2023-02-08T10:11:45;12.60;;;6.43;;
33954;SDS011;20233;50.804;7.126;2023-02-08T10:17:33;12.75;;;5.65;;
33954;SDS011;20233;50.804;7.126;2023-02-08T10:20:31;13.65;;;6.28;;
33954;SDS011;20233;50.804;7.126;2023-02-08T10:26:27;10.50;;;5.60;;
33954;SDS011;20233;50.804;7.126;2023-02-08T10:37:03;12.57;;;6.47;;
33954;SDS011;20233;50.804;7.126;2023-02-08T10:39:44;12.30;;;5.28;;
33954;SDS011;20233;50.804;7.126;2023-02-08T10:42:17;10.27;;;5.28;;
33954;SDS011;20233;50.804;7.126;2023-02-08T10:50:51;11.02;;;5.40;;
33954;SDS011;20233;50.804;7.126;2023-02-08T10:52:51;9.98;;;5.18;;
33954;SDS011;20233;50.804;7.126;2023-02-08T10:55:19;11.52;;;4.88;;
33954;SDS011;20233;50.804;7.126;2023-02-08T10:57:46;10.95;;;5.43;;
33954;SDS011;20233;50.804;7.126;2023-02-08T11:02:45;8.93;;;4.85;;
33954;SDS011;20233;50.804;7.126;2023-02-08T11:05:16;9.63;;;4.90;;
33954;SDS011;20233;50.804;7.126;2023-02-08T11:08:03;8.40;;;4.80;;
33954;SDS011;20233;50.804;7.126;2023-02-08T11:11:04;9.27;;;4.70;;
33954;SDS011;20233;50.804;7.126;2023-02-08T11:13:43;11.32;;;5.28;;
33954;SDS011;20233;50.804;7.126;2023-02-08T11:16:22;13.00;;;5.43;;
33954;SDS011;20233;50.804;7.126;2023-02-08T11:18:52;8.05;;;4.97;;
33954;SDS011;20233;50.804;7.126;2023-02-08T11:21:36;9.07;;;4.15;;
33954;SDS011;20233;50.804;7.126;2023-02-08T11:24:22;7.68;;;3.90;;
33954;SDS011;20233;50.804;7.126;2023-02-08T11:27:28;6.65;;;3.42;;
33954;SDS011;20233;50.804;7.126;2023-02-08T11:32:43;8.30;;;2.97;;
33954;SDS011;20233;50.804;7.126;2023-02-08T11:35:19;8.48;;;3.72;;
33954;SDS011;20233;50.804;7.126;2023-02-08T11:37:54;7.28;;;3.80;;
33954;SDS011;20233;50.804;7.126;2023-02-08T11:42:54;7.35;;;4.00;;
33954;SDS011;20233;50.804;7.126;2023-02-08T11:45:23;7.72;;;3.53;;
33954;SDS011;20233;50.804;7.126;2023-02-08T11:47:58;7.35;;;2.85;;
33954;SDS011;20233;50.804;7.126;2023-02-08T11:53:06;5.85;;;2.58;;
33954;SDS011;20233;50.804;7.126;2023-02-08T11:56:14;4.88;;;2.47;;
33954;SDS011;20233;50.804;7.126;2023-02-08T12:04:15;3.92;;;1.70;;
33954;SDS011;20233;50.804;7.126;2023-02-08T12:09:22;5.47;;;1.75;;
33954;SDS011;20233;50.804;7.126;2023-02-08T12:11:59;4.25;;;1.83;;
33954;SDS011;20233;50.804;7.126;2023-02-08T12:17:45;4.63;;;2.33;;
33954;SDS011;20233;50.804;7.126;2023-02-08T12:23:19;3.78;;;1.98;;
33954;SDS011;20233;50.804;7.126;2023-02-08T12:29:04;4.78;;;1.90;;
33954;SDS011;20233;50.804;7.126;2023-02-08T12:34:48;6.20;;;2.35;;
33954;SDS011;20233;50.804;7.126;2023-02-08T12:48:39;6.38;;;2.13;;
33954;SDS011;20233;50.804;7.126;2023-02-08T12:52:24;7.20;;;2.10;;
33954;SDS011;20233;50.804;7.126;2023-02-08T12:54:57;3.80;;;1.48;;
33954;SDS011;20233;50.804;7.126;2023-02-08T12:57:48;4.65;;;1.67;;
33954;SDS011;20233;50.804;7.126;2023-02-08T13:00:27;5.13;;;2.03;;
33954;SDS011;20233;50.804;7.126;2023-02-08T13:05:50;4.20;;;1.75;;
33954;SDS011;20233;50.804;7.126;2023-02-08T13:11:03;4.28;;;1.83;;
33954;SDS011;20233;50.804;7.126;2023-02-08T13:13:39;5.72;;;2.67;;
33954;SDS011;20233;50.804;7.126;2023-02-08T13:16:15;4.00;;;1.60;;
33954;SDS011;20233;50.804;7.126;2023-02-08T13:21:21;4.57;;;1.77;;
33954;SDS011;20233;50.804;7.126;2023-02-08T13:23:55;4.63;;;1.63;;
33954;SDS011;20233;50.804;7.126;2023-02-08T13:26:25;3.08;;;0.98;;
33954;SDS011;20233;50.804;7.126;2023-02-08T13:28:57;2.85;;;1.05;;
33954;SDS011;20233;50.804;7.126;2023-02-08T13:31:29;3.88;;;1.23;;
33954;SDS011;20233;50.804;7.126;2023-02-08T13:34:19;4.45;;;1.58;;
33954;SDS011;20233;50.804;7.126;2023-02-08T13:36:55;3.33;;;1.20;;
33954;SDS011;20233;50.804;7.126;2023-02-08T13:42:04;2.38;;;1.05;;
33954;SDS011;20233;50.804;7.126;2023-02-08T13:44:34;3.30;;;1.38;;
33954;SDS011;20233;50.804;7.126;2023-02-08T13:47:04;3.10;;;0.80;;
33954;SDS011;20233;50.804;7.126;2023-02-08T13:58:02;6.38;;;1.30;;
33954;SDS011;20233;50.804;7.126;2023-02-08T14:03:20;4.65;;;1.35;;
33954;SDS011;20233;50.804;7.126;2023-02-08T14:05:53;5.05;;;1.27;;
33954;SDS011;20233;50.804;7.126;2023-02-08T14:08:32;4.78;;;1.88;;
33954;SDS011;20233;50.804;7.126;2023-02-08T14:11:10;3.55;;;0.90;;
33954;SDS011;20233;50.804;7.126;2023-02-08T14:19:18;4.47;;;1.08;;
33954;SDS011;20233;50.804;7.126;2023-02-08T14:21:49;2.78;;;1.00;;
33954;SDS011;20233;50.804;7.126;2023-02-08T14:24:42;2.97;;;1.10;;
33954;SDS011;20233;50.804;7.126;2023-02-08T14:27:26;2.80;;;0.80;;
33954;SDS011;20233;50.804;7.126;2023-02-08T14:30:25;3.85;;;1.23;;
33954;SDS011;20233;50.804;7.126;2023-02-08T14:35:38;3.42;;;1.05;;
33954;SDS011;20233;50.804;7.126;2023-02-08T14:40:52;3.47;;;0.80;;
33954;SDS011;20233;50.804;7.126;2023-02-08T14:45:53;3.42;;;1.05;;
33954;SDS011;20233;50.804;7.126;2023-02-08T14:56:35;4.82;;;1.23;;
33954;SDS011;20233;50.804;7.126;2023-02-08T14:59:31;5.05;;;1.20;;
33954;SDS011;20233;50.804;7.126;2023-02-08T15:02:00;2.10;;;1.00;;
33954;SDS011;20233;50.804;7.126;2023-02-08T15:04:33;3.13;;;1.23;;
33954;SDS011;20233;50.804;7.126;2023-02-08T15:10:04;3.42;;;0.90;;
33954;SDS011;20233;50.804;7.126;2023-02-08T15:12:38;2.25;;;0.98;;
33954;SDS011;20233;50.804;7.126;2023-02-08T15:15:20;4.03;;;1.92;;
33954;SDS011;20233;50.804;7.126;2023-02-08T15:18:06;6.13;;;1.85;;
33954;SDS011;20233;50.804;7.126;2023-02-08T15:20:43;4.22;;;1.67;;
33954;SDS011;20233;50.804;7.126;2023-02-08T15:23:21;5.00;;;1.30;;
33954;SDS011;20233;50.804;7.126;2023-02-08T15:26:05;4.57;;;1.33;;
33954;SDS011;20233;50.804;7.126;2023-02-08T15:28:46;2.85;;;1.00;;
33954;SDS011;20233;50.804;7.126;2023-02-08T15:31:14;4.80;;;1.38;;
33954;SDS011;20233;50.804;7.126;2023-02-08T15:33:44;4.22;;;1.90;;
33954;SDS011;20233;50.804;7.126;2023-02-08T15:36:31;3.38;;;1.52;;
33954;SDS011;20233;50.804;7.126;2023-02-08T15:39:03;6.90;;;2.92;;
33954;SDS011;20233;50.804;7.126;2023-02-08T15:41:40;4.50;;;1.55;;
33954;SDS011;20233;50.804;7.126;2023-02-08T15:46:43;4.53;;;2.00;;
33954;SDS011;20233;50.804;7.126;2023-02-08T15:49:13;4.82;;;2.00;;
33954;SDS011;20233;50.804;7.126;2023-02-08T15:51:44;4.72;;;2.55;;
33954;SDS011;20233;50.804;7.126;2023-02-08T15:54:16;7.70;;;1.70;;
33954;SDS011;20233;50.804;7.126;2023-02-08T15:56:48;5.80;;;2.50;;
33954;SDS011;20233;50.804;7.126;2023-02-08T15:59:25;4.75;;;2.35;;
33954;SDS011;20233;50.804;7.126;2023-02-08T16:01:54;6.95;;;2.67;;
33954;SDS011;20233;50.804;7.126;2023-02-08T16:04:23;5.53;;;2.38;;
33954;SDS011;20233;50.804;7.126;2023-02-08T16:06:53;6.82;;;3.45;;
33954;SDS011;20233;50.804;7.126;2023-02-08T16:09:22;8.35;;;2.40;;
33954;SDS011;20233;50.804;7.126;2023-02-08T16:11:57;5.72;;;2.70;;
33954;SDS011;20233;50.804;7.126;2023-02-08T16:14:25;7.18;;;2.80;;
33954;SDS011;20233;50.804;7.126;2023-02-08T16:16:53;9.82;;;3.10;;
33954;SDS011;20233;50.804;7.126;2023-02-08T16:19:26;6.53;;;2.83;;
33954;SDS011;20233;50.804;7.126;2023-02-08T16:22:14;9.38;;;3.40;;
33954;SDS011;20233;50.804;7.126;2023-02-08T16:24:53;5.55;;;3.38;;
33954;SDS011;20233;50.804;7.126;2023-02-08T16:27:56;8.35;;;4.50;;
33954;SDS011;20233;50.804;7.126;2023-02-08T16:30:23;7.57;;;3.53;;
33954;SDS011;20233;50.804;7.126;2023-02-08T16:32:49;7.88;;;4.18;;
33954;SDS011;20233;50.804;7.126;2023-02-08T16:35:21;7.03;;;3.67;;
33954;SDS011;20233;50.804;7.126;2023-02-08T16:37:53;9.48;;;3.53;;
33954;SDS011;20233;50.804;7.126;2023-02-08T16:48:49;7.50;;;3.47;;
33954;SDS011;20233;50.804;7.126;2023-02-08T16:51:29;9.45;;;4.65;;
33954;SDS011;20233;50.804;7.126;2023-02-08T16:54:00;9.65;;;4.70;;
33954;SDS011;20233;50.804;7.126;2023-02-08T16:56:35;10.55;;;4.57;;
33954;SDS011;20233;50.804;7.126;2023-02-08T16:59:01;10.25;;;3.83;;
33954;SDS011;20233;50.804;7.126;2023-02-08T17:01:28;7.88;;;4.07;;
33954;SDS011;20233;50.804;7.126;2023-02-08T17:03:55;9.63;;;4.10;;
33954;SDS011;20233;50.804;7.126;2023-02-08T17:06:29;8.48;;;4.40;;
33954;SDS011;20233;50.804;7.126;2023-02-08T17:09:00;7.82;;;3.83;;
33954;SDS011;20233;50.804;7.126;2023-02-08T17:11:29;11.77;;;4.70;;
33954;SDS011;20233;50.804;7.126;2023-02-08T17:13:55;9.10;;;6.22;;
33954;SDS011;20233;50.804;7.126;2023-02-08T17:16:24;8.25;;;4.50;;
33954;SDS011;20233;50.804;7.126;2023-02-08T17:18:53;10.63;;;5.07;;
33954;SDS011;20233;50.804;7.126;2023-02-08T17:21:20;13.43;;;7.22;;
33954;SDS011;20233;50.804;7.126;2023-02-08T17:23:47;9.52;;;5.75;;
33954;SDS011;20233;50.804;7.126;2023-02-08T17:26:16;9.88;;;4.97;;